Split, Croatia
Current Conditions -  °F | °C
As of 3:00 PM on Friday 24 Oct 2014 (Local Time) from LDSP Reporting Station
Clear Clear  
Wind Chill: 63°   Ceiling: Unl
Heat Index: 63°   Visibility: 6mi
Dew Point: 39°   Wind: 14mph
Humidity: 42%   Direction: 70°ENE
Pressure: 29.83"   Gusts: 25mph
Location:  43.51°N, 16.45°E
Report Text: LDSP 241300Z 07012G22KT 030V110 CAVOK 17/04 Q1010 NOSIG
Loading
Personal Weather Stations






























Interactive Weather Map
Tropical Storm Tracking
New forecast layout! Learn more

10-Day Weather Forecast

Advertisements
Track Severe Weather on mobile